Time;durP1;ratioP1;P1;durP2;ratioP2;P2;SDS_P1;SDS_P2;PMS_P1;PMS_P2;Temp;Humidity;BMP_temperature;BMP_pressure;BME280_temperature;BME280_humidity;BME280_pressure;Samples;Min_cycle;Max_cycle;Signal;HPM_P1;HPM_P2
2022/05/27 00:00:52;;;;;;;4.50;0.82;;;22.70;86.30;;;;;;5039334;28;20136;-73
2022/05/27 00:03:19;;;;;;;1.98;0.90;;;22.70;86.60;;;;;;5021358;28;20049;-73
2022/05/27 00:05:50;;;;;;;2.08;0.70;;;22.70;86.70;;;;;;5029071;28;20065;-73
2022/05/27 00:08:16;;;;;;;4.38;1.15;;;22.60;87.20;;;;;;5039966;28;20042;-73
2022/05/27 00:10:43;;;;;;;2.33;0.80;;;22.60;87.70;;;;;;5028210;28;20046;-74
2022/05/27 00:13:09;;;;;;;3.80;1.00;;;22.60;88.10;;;;;;5020126;28;20033;-74
2022/05/27 00:15:35;;;;;;;4.50;1.25;;;22.50;88.60;;;;;;5022662;28;20041;-74
2022/05/27 00:18:01;;;;;;;3.15;1.00;;;22.50;88.60;;;;;;5023770;28;20037;-74
2022/05/27 00:20:28;;;;;;;2.00;0.95;;;22.60;88.70;;;;;;5024105;28;20030;-73
2022/05/27 00:22:53;;;;;;;2.25;0.80;;;22.50;88.80;;;;;;5023134;28;20044;-73
2022/05/27 00:25:21;;;;;;;3.08;0.98;;;22.50;88.80;;;;;;5031699;28;20401;-74
2022/05/27 00:27:47;;;;;;;3.53;1.05;;;22.50;89.10;;;;;;5024633;28;20416;-73
2022/05/27 00:30:13;;;;;;;9.65;1.60;;;22.50;90.00;;;;;;5028634;28;20077;-72
2022/05/27 00:32:39;;;;;;;4.60;1.60;;;22.30;90.60;;;;;;5022785;28;20096;-73
2022/05/27 00:35:08;;;;;;;7.07;1.85;;;22.30;90.90;;;;;;5024064;28;20133;-73
2022/05/27 00:37:35;;;;;;;5.43;1.50;;;22.10;91.50;;;;;;5040762;28;20037;-74
2022/05/27 00:40:01;;;;;;;7.05;1.67;;;22.00;92.20;;;;;;5025263;28;20722;-73
2022/05/27 00:42:27;;;;;;;5.07;1.85;;;22.00;92.50;;;;;;5027980;28;20042;-73
2022/05/27 00:44:53;;;;;;;6.30;1.42;;;21.90;92.70;;;;;;5025433;28;20068;-73
2022/05/27 00:47:22;;;;;;;3.83;1.50;;;21.80;92.90;;;;;;5023991;28;20034;-73
2022/05/27 00:50:00;;;;;;;6.03;1.58;;;21.80;93.00;;;;;;5040985;28;20050;-73
2022/05/27 00:52:30;;;;;;;3.97;1.30;;;21.70;93.40;;;;;;5022325;28;20038;-74
2022/05/27 00:54:57;;;;;;;5.90;1.63;;;21.60;93.70;;;;;;5023578;28;20038;-73
2022/05/27 00:57:30;;;;;;;6.88;1.80;;;21.60;93.80;;;;;;5009399;28;20038;-72
2022/05/27 01:00:06;;;;;;;3.75;1.52;;;21.60;94.10;;;;;;5041642;28;20053;-72
2022/05/27 01:02:34;;;;;;;3.80;1.95;;;21.50;94.30;;;;;;5056471;28;20061;-74
2022/05/27 01:05:02;;;;;;;5.57;1.55;;;21.40;94.70;;;;;;5026715;28;20049;-73
2022/05/27 01:07:29;;;;;;;5.95;1.70;;;21.30;95.00;;;;;;5011310;28;20037;-73
2022/05/27 01:09:56;;;;;;;6.57;1.85;;;21.40;95.10;;;;;;5022656;28;20128;-73
2022/05/27 01:12:28;;;;;;;4.40;1.73;;;21.30;95.40;;;;;;5022491;28;20044;-73
2022/05/27 01:15:03;;;;;;;6.72;1.60;;;21.20;95.40;;;;;;5022021;28;20045;-73
2022/05/27 01:17:46;;;;;;;4.60;1.70;;;21.20;95.60;;;;;;5040660;28;20034;-73
2022/05/27 01:20:22;;;;;;;5.35;1.52;;;21.20;95.70;;;;;;5022463;28;20140;-74
2022/05/27 01:23:13;;;;;;;6.35;1.75;;;21.20;95.60;;;;;;5037906;28;20041;-73
2022/05/27 01:25:43;;;;;;;5.93;1.48;;;21.10;95.70;;;;;;5035311;28;20047;-72
2022/05/27 01:28:51;;;;;;;7.68;1.80;;;21.20;95.70;;;;;;5035570;28;20041;-73
2022/05/27 01:31:27;;;;;;;5.05;1.45;;;21.10;95.70;;;;;;5035897;28;20046;-73
2022/05/27 01:34:19;;;;;;;7.15;1.60;;;21.10;95.80;;;;;;5019409;28;20044;-72
2022/05/27 01:37:08;;;;;;;3.85;1.50;;;21.10;96.00;;;;;;5025491;28;20042;-73
2022/05/27 01:39:49;;;;;;;4.45;1.70;;;21.00;96.00;;;;;;5037532;28;20034;-73
2022/05/27 01:42:29;;;;;;;5.10;1.70;;;21.00;96.20;;;;;;5037813;28;20034;-73
2022/05/27 01:45:15;;;;;;;4.82;1.58;;;21.00;96.10;;;;;;5024892;28;20045;-73
2022/05/27 01:47:51;;;;;;;6.25;1.85;;;21.00;96.30;;;;;;5023749;28;20033;-73
2022/05/27 01:50:26;;;;;;;3.92;1.73;;;21.00;96.30;;;;;;5028019;28;20464;-73
2022/05/27 01:53:11;;;;;;;3.92;1.30;;;21.00;96.40;;;;;;5024294;28;20049;-72
2022/05/27 01:56:00;;;;;;;4.57;1.80;;;21.00;95.20;;;;;;5008477;28;20474;-73
2022/05/27 01:58:45;;;;;;;3.35;1.13;;;21.10;95.10;;;;;;5021933;28;20026;-73
2022/05/27 02:01:20;;;;;;;2.25;0.95;;;21.10;94.40;;;;;;5014755;28;20391;-72
2022/05/27 02:03:53;;;;;;;2.10;1.10;;;21.10;94.20;;;;;;5023968;28;20428;-72
2022/05/27 02:06:28;;;;;;;;;;;21.10;94.30;;;;;;5025887;28;20037;-73
2022/05/27 02:09:10;;;;;;;3.45;1.30;;;21.10;94.50;;;;;;5023652;28;20369;-72
2022/05/27 02:11:38;;;;;;;4.13;1.20;;;21.00;94.80;;;;;;5037170;28;20033;-73
2022/05/27 02:14:11;;;;;;;7.05;1.45;;;21.00;94.50;;;;;;5038575;28;20040;-73
2022/05/27 02:16:57;;;;;;;4.50;1.00;;;20.90;94.50;;;;;;5022209;28;20095;-72
2022/05/27 02:20:18;;;;;;;4.25;1.35;;;20.90;94.40;;;;;;5037682;28;20091;-72
2022/05/27 02:22:49;;;;;;;2.72;1.05;;;20.80;94.50;;;;;;4987159;28;20461;-72
2022/05/27 02:25:28;;;;;;;2.47;1.08;;;20.70;94.60;;;;;;5020902;28;20036;-72
2022/05/27 02:28:22;;;;;;;4.85;1.30;;;20.70;94.60;;;;;;5023365;28;20116;-73
2022/05/27 02:30:54;;;;;;;2.28;0.90;;;20.60;94.50;;;;;;5053228;28;20049;-73
2022/05/27 02:36:13;;;;;;;3.97;1.40;;;20.70;94.10;;;;;;5023162;28;20098;-73
2022/05/27 02:38:38;;;;;;;4.85;1.10;;;20.80;94.70;;;;;;5025148;28;20110;-73
2022/05/27 02:41:21;;;;;;;4.70;1.30;;;20.70;95.30;;;;;;5038440;28;20033;-73
2022/05/27 02:44:17;;;;;;;3.03;1.17;;;20.50;95.60;;;;;;5031343;28;20045;-73
2022/05/27 02:47:06;;;;;;;6.35;1.80;;;20.50;95.80;;;;;;5018632;28;20798;-73
2022/05/27 02:49:56;;;;;;;3.97;1.45;;;20.50;96.00;;;;;;5023563;28;20049;-72
2022/05/27 02:53:02;;;;;;;3.42;1.23;;;20.40;95.70;;;;;;5024866;28;21817;-72
2022/05/27 02:55:59;;;;;;;6.95;3.28;;;20.40;95.70;;;;;;5035746;28;20034;-72
2022/05/27 02:58:25;;;;;;;10.43;6.70;;;20.40;96.00;;;;;;5034279;28;20033;-73
2022/05/27 03:00:52;;;;;;;4.82;1.90;;;20.40;95.90;;;;;;5037510;28;20037;-72
2022/05/27 03:03:19;;;;;;;4.68;1.40;;;20.40;95.50;;;;;;5035526;28;20042;-73
2022/05/27 03:06:24;;;;;;;3.78;1.23;;;20.60;95.00;;;;;;5021023;28;20747;-73
2022/05/27 03:09:28;;;;;;;5.50;1.65;;;20.50;95.00;;;;;;5006688;28;20038;-72
2022/05/27 03:12:05;;;;;;;4.47;1.27;;;20.50;95.50;;;;;;5051102;28;20052;-72
2022/05/27 03:14:56;;;;;;;2.70;1.15;;;20.30;95.60;;;;;;5052841;28;20151;-72
2022/05/27 03:17:45;;;;;;;4.85;1.75;;;20.30;95.80;;;;;;5024430;28;20036;-73
2022/05/27 03:20:33;;;;;;;3.28;1.23;;;20.30;95.90;;;;;;5020739;28;20042;-72
2022/05/27 03:23:28;;;;;;;3.78;1.70;;;20.30;96.00;;;;;;5020884;28;20087;-72
2022/05/27 03:26:07;;;;;;;4.15;1.50;;;20.20;96.10;;;;;;5017869;28;20038;-73
2022/05/27 03:29:15;;;;;;;4.05;1.40;;;20.20;96.10;;;;;;5019260;28;20378;-72
2022/05/27 03:31:48;;;;;;;4.30;1.52;;;20.30;96.00;;;;;;5016933;28;20053;-73
2022/05/27 03:34:39;;;;;;;4.68;1.33;;;20.20;96.00;;;;;;5022021;28;20041;-72
2022/05/27 03:37:19;;;;;;;3.10;1.48;;;20.30;95.80;;;;;;5017716;28;20062;-72
2022/05/27 03:40:06;;;;;;;3.72;1.42;;;20.40;95.60;;;;;;5035414;28;20038;-72
2022/05/27 03:42:35;;;;;;;3.65;1.50;;;20.40;95.30;;;;;;5033148;28;20040;-73
2022/05/27 03:45:08;;;;;;;5.50;1.35;;;20.30;95.50;;;;;;5021895;28;20049;-73
2022/05/27 03:47:34;;;;;;;;;;;20.40;95.50;;;;;;5023267;28;20172;-73
2022/05/27 03:50:01;;;;;;;4.63;1.40;;;20.30;95.70;;;;;;5024732;28;19925;-72
2022/05/27 03:52:34;;;;;;;7.75;1.60;;;20.40;95.70;;;;;;5018864;28;20030;-72
2022/05/27 03:55:00;;;;;;;5.53;1.50;;;20.40;96.00;;;;;;5036514;28;20041;-73
2022/05/27 03:57:26;;;;;;;3.40;1.38;;;20.40;96.20;;;;;;5049569;28;20088;-72
2022/05/27 03:59:53;;;;;;;4.13;1.33;;;20.40;96.50;;;;;;5017188;28;20042;-73
2022/05/27 04:02:19;;;;;;;3.58;1.55;;;20.30;96.60;;;;;;5034049;28;20038;-72
2022/05/27 04:04:45;;;;;;;3.67;1.30;;;20.30;96.90;;;;;;5022446;28;20041;-73
2022/05/27 04:07:11;;;;;;;5.45;1.15;;;20.50;95.50;;;;;;5021811;28;20045;-72
2022/05/27 04:09:39;;;;;;;5.50;1.65;;;20.50;95.10;;;;;;5035426;28;20485;-73
2022/05/27 04:12:06;;;;;;;3.30;1.48;;;20.60;94.80;;;;;;5016746;28;20080;-73
2022/05/27 04:14:33;;;;;;;3.88;1.35;;;20.50;94.70;;;;;;5023476;28;20027;-73
2022/05/27 04:19:44;;;;;;;3.13;1.20;;;20.50;94.80;;;;;;5019160;28;20111;-73
2022/05/27 04:22:10;;;;;;;3.20;0.93;;;20.40;95.00;;;;;;5023122;28;20034;-73
2022/05/27 04:24:38;;;;;;;3.40;1.08;;;20.40;95.10;;;;;;5023082;28;20042;-72
2022/05/27 04:27:11;;;;;;;5.03;1.40;;;20.40;95.10;;;;;;5035920;28;20042;-73
2022/05/27 04:29:45;;;;;;;2.97;1.27;;;20.40;95.10;;;;;;5021005;28;20072;-73
2022/05/27 04:32:11;;;;;;;5.13;1.27;;;20.40;95.10;;;;;;5036252;28;20485;-72
2022/05/27 04:34:38;;;;;;;6.18;1.90;;;20.40;95.30;;;;;;5021222;28;20048;-73
2022/05/27 04:37:05;;;;;;;3.40;1.30;;;20.30;95.30;;;;;;5021865;28;20037;-73
2022/05/27 04:39:31;;;;;;;3.42;1.58;;;20.40;95.10;;;;;;5024294;28;20594;-74
2022/05/27 04:41:57;;;;;;;6.57;2.22;;;20.40;95.00;;;;;;5017670;28;20684;-73
2022/05/27 04:44:23;;;;;;;2.92;1.52;;;20.40;95.20;;;;;;5037839;28;20041;-73
2022/05/27 04:46:49;;;;;;;4.72;1.80;;;20.30;95.40;;;;;;5023958;28;20037;-73
2022/05/27 04:52:03;;;;;;;5.03;1.70;;;20.20;95.70;;;;;;5027317;28;20117;-73
2022/05/27 04:54:29;;;;;;;3.72;1.17;;;20.20;95.70;;;;;;5040919;28;20057;-72
2022/05/27 04:56:57;;;;;;;4.80;1.70;;;20.30;95.60;;;;;;5021499;28;20041;-73
2022/05/27 04:59:23;;;;;;;4.90;2.03;;;20.40;96.10;;;;;;5022319;28;20046;-73
2022/05/27 05:01:50;;;;;;;4.07;1.27;;;20.30;96.30;;;;;;5024946;28;20048;-73
2022/05/27 05:04:16;;;;;;;6.22;1.50;;;20.40;95.50;;;;;;5024896;28;20092;-73
2022/05/27 05:06:43;;;;;;;5.68;1.20;;;20.50;95.40;;;;;;5034248;28;20044;-73
2022/05/27 05:09:09;;;;;;;4.57;1.30;;;20.50;95.40;;;;;;5019843;28;20515;-72
2022/05/27 05:11:37;;;;;;;5.78;2.00;;;20.50;95.40;;;;;;5027789;28;20055;-73
2022/05/27 05:14:04;;;;;;;4.63;1.80;;;20.50;96.00;;;;;;5038599;28;20041;-72
2022/05/27 05:16:30;;;;;;;4.82;1.85;;;20.40;96.30;;;;;;5039964;28;20048;-73
2022/05/27 05:18:57;;;;;;;5.95;1.98;;;20.40;96.60;;;;;;5032157;28;20045;-72
2022/05/27 05:21:23;;;;;;;3.97;2.08;;;20.40;96.60;;;;;;5023062;28;20042;-75
2022/05/27 05:23:51;;;;;;;8.32;1.60;;;20.40;96.70;;;;;;5026046;28;20053;-73
2022/05/27 05:26:17;;;;;;;4.40;2.03;;;20.40;96.70;;;;;;5024165;28;20105;-73
2022/05/27 05:28:43;;;;;;;6.40;1.83;;;20.40;96.80;;;;;;5039697;28;20128;-75
2022/05/27 05:31:11;;;;;;;7.43;2.40;;;20.40;96.60;;;;;;5053099;28;20379;-73
2022/05/27 05:33:38;;;;;;;7.97;2.13;;;20.40;96.70;;;;;;5006782;28;20033;-75
2022/05/27 05:36:04;;;;;;;7.22;2.42;;;20.40;96.80;;;;;;5022873;28;20140;-73
2022/05/27 05:38:30;;;;;;;8.55;2.28;;;20.40;96.80;;;;;;5024890;28;20050;-73
2022/05/27 05:40:56;;;;;;;5.90;2.42;;;20.40;96.70;;;;;;5025499;28;20033;-73
2022/05/27 05:43:22;;;;;;;5.75;1.92;;;20.40;96.90;;;;;;5027438;28;20061;-73
2022/05/27 05:45:49;;;;;;;10.70;3.90;;;20.40;96.60;;;;;;5024670;28;20065;-74
2022/05/27 05:48:15;;;;;;;5.50;1.60;;;20.50;96.50;;;;;;5026496;28;20099;-72
2022/05/27 05:50:42;;;;;;;5.60;2.00;;;20.60;96.20;;;;;;5026791;28;20119;-73
2022/05/27 05:53:09;;;;;;;7.60;1.80;;;20.60;96.30;;;;;;5020791;28;20390;-73
2022/05/27 05:55:35;;;;;;;4.32;1.65;;;20.60;96.30;;;;;;5018685;28;20140;-73
2022/05/27 05:58:02;;;;;;;3.78;1.50;;;20.60;95.90;;;;;;5035632;28;20040;-74
2022/05/27 06:00:32;;;;;;;5.60;1.60;;;20.60;96.20;;;;;;5024094;28;20404;-73
2022/05/27 06:02:58;;;;;;;11.40;2.22;;;20.60;96.10;;;;;;5020813;28;20046;-73
2022/05/27 06:05:24;;;;;;;5.13;2.00;;;20.70;96.40;;;;;;5038356;28;20048;-74
2022/05/27 06:07:52;;;;;;;12.50;2.70;;;20.60;96.50;;;;;;5039226;28;20117;-73
2022/05/27 06:10:19;;;;;;;6.05;1.70;;;20.60;96.50;;;;;;5037875;28;20046;-73
2022/05/27 06:12:46;;;;;;;7.18;2.03;;;20.60;96.50;;;;;;5034354;28;20048;-73
2022/05/27 06:15:14;;;;;;;7.65;1.77;;;20.60;96.30;;;;;;5034518;28;20406;-73
2022/05/27 06:17:41;;;;;;;9.63;1.98;;;20.70;96.30;;;;;;5025663;28;20033;-72
2022/05/27 06:20:08;;;;;;;8.18;1.83;;;20.70;96.30;;;;;;5036108;28;20075;-74
2022/05/27 06:22:35;;;;;;;6.68;2.40;;;20.90;96.20;;;;;;5030757;28;20037;-73
2022/05/27 06:25:01;;;;;;;27.10;18.75;;;21.00;96.00;;;;;;5020220;28;20169;-73
2022/05/27 06:27:27;;;;;;;7.15;2.08;;;21.20;95.70;;;;;;5040662;28;20048;-74
2022/05/27 06:35:22;;;;;;;8.57;2.67;;;21.30;95.80;;;;;;5021915;28;20427;-72
2022/05/27 06:37:49;;;;;;;9.90;2.33;;;21.40;96.00;;;;;;5036556;28;20087;-73
2022/05/27 06:40:17;;;;;;;7.05;2.40;;;21.50;95.70;;;;;;5020813;28;20452;-72
2022/05/27 06:42:43;;;;;;;8.43;2.65;;;21.50;95.60;;;;;;5019201;28;20068;-73
2022/05/27 06:45:13;;;;;;;5.88;1.30;;;21.60;95.60;;;;;;5022215;28;20040;-73
2022/05/27 06:47:39;;;;;;;9.05;2.00;;;21.70;94.50;;;;;;5035883;28;20049;-73
2022/05/27 06:50:06;;;;;;;5.85;1.50;;;21.70;95.20;;;;;;5031780;28;20049;-74
2022/05/27 06:52:32;;;;;;;4.15;1.50;;;21.80;94.30;;;;;;5023189;28;20098;-73
2022/05/27 06:54:58;;;;;;;4.40;1.48;;;21.80;93.80;;;;;;5022464;28;20497;-73
2022/05/27 06:57:25;;;;;;;3.55;1.40;;;21.80;93.10;;;;;;5032853;28;20485;-74
2022/05/27 06:59:51;;;;;;;3.17;1.33;;;21.90;93.20;;;;;;5037992;28;20084;-73
2022/05/27 07:02:17;;;;;;;3.42;1.40;;;22.10;93.30;;;;;;5017907;28;20066;-73
2022/05/27 07:04:43;;;;;;;5.47;1.50;;;22.20;93.50;;;;;;5018458;28;20034;-74
2022/05/27 07:07:09;;;;;;;8.93;1.67;;;22.20;93.90;;;;;;5021406;28;20048;-73
2022/05/27 07:09:35;;;;;;;7.20;1.63;;;22.00;93.90;;;;;;5028482;28;20096;-73
2022/05/27 07:12:06;;;;;;;19.92;13.48;;;21.90;94.60;;;;;;5022190;28;20049;-74
2022/05/27 07:14:32;;;;;;;8.63;3.00;;;21.90;93.80;;;;;;5018657;28;20036;-73
2022/05/27 07:16:59;;;;;;;6.28;1.75;;;22.10;93.70;;;;;;5037910;28;20056;-73
2022/05/27 07:19:25;;;;;;;4.80;1.50;;;22.20;93.60;;;;;;5020965;28;20040;-73
2022/05/27 07:21:55;;;;;;;5.22;1.58;;;22.30;93.40;;;;;;5023589;28;20038;-73
2022/05/27 07:24:24;;;;;;;4.50;1.45;;;22.40;93.30;;;;;;5035229;28;20663;-73
2022/05/27 07:26:50;;;;;;;3.63;1.50;;;22.50;93.20;;;;;;5023160;28;20068;-73
2022/05/27 07:29:16;;;;;;;4.22;1.70;;;22.40;93.10;;;;;;5020711;28;20091;-73
2022/05/27 07:31:44;;;;;;;4.28;1.30;;;22.50;93.00;;;;;;5022022;28;20049;-73
2022/05/27 07:34:11;;;;;;;4.53;1.45;;;22.40;92.70;;;;;;5019930;28;20091;-73
2022/05/27 07:36:38;;;;;;;8.18;1.67;;;22.50;92.80;;;;;;5036262;28;20038;-73
2022/05/27 07:39:05;;;;;;;4.60;1.40;;;22.60;92.90;;;;;;5024946;28;20413;-73
2022/05/27 07:41:32;;;;;;;5.32;1.60;;;22.60;92.90;;;;;;5021106;28;20042;-72
2022/05/27 07:44:01;;;;;;;5.55;1.73;;;22.70;93.10;;;;;;5009678;28;20145;-72
2022/05/27 07:46:29;;;;;;;5.80;2.10;;;22.80;93.10;;;;;;5037389;28;20033;-73
2022/05/27 07:48:55;;;;;;;5.95;1.50;;;22.90;92.80;;;;;;5020455;28;20045;-74
2022/05/27 07:51:22;;;;;;;4.97;1.70;;;22.80;92.80;;;;;;5037895;28;20536;-71
2022/05/27 07:53:48;;;;;;;6.90;2.00;;;22.30;93.90;;;;;;5018598;28;20061;-73
2022/05/27 07:56:14;;;;;;;7.32;1.80;;;22.50;93.90;;;;;;5026409;28;20061;-72
2022/05/27 07:58:40;;;;;;;5.65;1.75;;;22.90;93.70;;;;;;5018565;28;20060;-74
2022/05/27 08:01:11;;;;;;;10.60;1.92;;;23.30;93.10;;;;;;5023457;28;20045;-73
2022/05/27 08:03:38;;;;;;;5.70;1.67;;;23.30;93.00;;;;;;5037206;28;20045;-73
2022/05/27 08:06:04;;;;;;;8.57;1.90;;;22.90;92.80;;;;;;5033755;28;20590;-72
2022/05/27 08:08:30;;;;;;;6.93;2.13;;;23.10;93.10;;;;;;5035504;28;20043;-73
2022/05/27 08:10:56;;;;;;;7.18;2.03;;;23.20;93.00;;;;;;5024203;28;20042;-75
2022/05/27 08:13:23;;;;;;;6.07;1.67;;;23.20;93.10;;;;;;5024217;28;20105;-73
2022/05/27 08:15:52;;;;;;;6.20;2.20;;;23.30;93.00;;;;;;5041065;28;20045;-74
2022/05/27 08:18:18;;;;;;;10.68;2.10;;;23.50;93.20;;;;;;5022795;28;20046;-72
2022/05/27 08:20:44;;;;;;;7.22;2.25;;;23.90;93.10;;;;;;5037169;28;20131;-73
2022/05/27 08:23:11;;;;;;;4.82;2.00;;;24.10;92.70;;;;;;5031536;28;20053;-74
2022/05/27 08:25:38;;;;;;;8.32;2.00;;;24.40;92.50;;;;;;5011988;28;20508;-74
2022/05/27 08:28:07;;;;;;;5.80;2.00;;;24.60;92.00;;;;;;5041781;28;20041;-74
2022/05/27 08:30:38;;;;;;;4.95;1.65;;;24.60;92.00;;;;;;5046505;28;20047;-73
2022/05/27 08:33:04;;;;;;;9.52;1.98;;;24.70;91.80;;;;;;5022930;28;20172;-73
2022/05/27 08:38:27;;;;;;;8.70;2.15;;;24.30;92.10;;;;;;5023631;28;20556;-74
2022/05/27 08:41:27;;;;;;;6.88;1.90;;;24.00;92.50;;;;;;5021955;28;20053;-73
2022/05/27 08:44:14;;;;;;;9.07;2.33;;;23.70;92.70;;;;;;5014971;28;20661;-73
2022/05/27 08:46:59;;;;;;;5.80;1.77;;;23.80;92.90;;;;;;5022193;28;20048;-76
2022/05/27 08:49:35;;;;;;;10.75;2.65;;;23.40;92.80;;;;;;5016967;28;20038;-75
2022/05/27 08:52:13;;;;;;;8.30;2.53;;;23.90;92.80;;;;;;5033931;28;20022;-75
2022/05/27 08:59:26;;;;;;;6.93;2.33;;;23.90;92.60;;;;;;5005503;28;20048;-75
2022/05/27 09:01:20;;;;;;;5.57;2.15;;;23.50;92.70;;;;;;5016707;28;20048;-76
2022/05/27 09:04:03;;;;;;;8.25;2.35;;;23.70;92.60;;;;;;5033983;28;20060;-76
2022/05/27 09:06:42;;;;;;;11.57;2.72;;;24.00;92.60;;;;;;5036026;28;20513;-76
2022/05/27 09:09:17;;;;;;;7.50;1.90;;;24.10;92.50;;;;;;5027950;28;20060;-76
2022/05/27 09:12:12;;;;;;;15.15;2.55;;;24.40;92.20;;;;;;5031245;28;20071;-75
2022/05/27 09:14:48;;;;;;;26.48;4.50;;;24.30;92.10;;;;;;5014153;28;20045;-75
2022/05/27 09:17:24;;;;;;;15.00;2.85;;;24.40;92.00;;;;;;5017747;28;20045;-75
2022/05/27 09:19:56;;;;;;;6.90;2.33;;;24.90;91.70;;;;;;5019801;28;20034;-76
2022/05/27 09:22:49;;;;;;;5.28;2.10;;;25.10;91.60;;;;;;5016299;28;20132;-76
2022/05/27 09:25:28;;;;;;;7.18;2.00;;;24.80;91.90;;;;;;5015997;28;20041;-76
2022/05/27 09:28:07;;;;;;;10.23;2.13;;;24.70;92.00;;;;;;5029178;28;20065;-74
2022/05/27 09:30:36;;;;;;;10.80;2.53;;;24.60;92.20;;;;;;5048259;28;20045;-75
2022/05/27 09:33:13;;;;;;;8.57;2.17;;;24.30;92.40;;;;;;5020172;28;20896;-75
2022/05/27 09:35:48;;;;;;;6.50;2.00;;;24.30;92.50;;;;;;5010030;28;20163;-75
2022/05/27 09:38:22;;;;;;;10.30;2.67;;;24.40;92.50;;;;;;5047305;28;20052;-75
2022/05/27 09:40:59;;;;;;;6.95;1.90;;;24.70;92.30;;;;;;5020939;28;20045;-75
2022/05/27 09:43:34;;;;;;;9.25;2.30;;;24.90;92.30;;;;;;5027942;28;20072;-76
2022/05/27 09:46:03;;;;;;;5.88;1.80;;;25.00;92.10;;;;;;5042648;28;20063;-77
2022/05/27 09:48:29;;;;;;;11.00;2.20;;;25.30;91.90;;;;;;5049658;28;20053;-75
2022/05/27 09:50:59;;;;;;;7.93;1.77;;;25.30;91.70;;;;;;5028814;28;20537;-76
2022/05/27 09:53:41;;;;;;;4.78;1.98;;;25.20;91.60;;;;;;5042618;28;20041;-75
2022/05/27 09:56:11;;;;;;;7.43;2.17;;;25.50;91.60;;;;;;5026235;28;20037;-75
2022/05/27 09:58:44;;;;;;;5.47;1.90;;;25.80;91.20;;;;;;5027024;28;20569;-75
2022/05/27 10:01:27;;;;;;;9.63;2.00;;;25.70;91.10;;;;;;5031654;28;20040;-76
2022/05/27 10:04:11;;;;;;;3.45;1.50;;;26.00;91.30;;;;;;5033303;28;20059;-75
2022/05/27 10:06:39;;;;;;;9.05;1.67;;;25.70;91.30;;;;;;5023529;28;20501;-76
2022/05/27 10:09:08;;;;;;;5.18;1.80;;;25.60;91.40;;;;;;5026267;28;20030;-77
2022/05/27 10:11:52;;;;;;;4.72;1.40;;;25.60;91.70;;;;;;5001448;28;20064;-76
2022/05/27 10:14:21;;;;;;;9.63;2.00;;;25.90;91.20;;;;;;5024101;28;20053;-76
2022/05/27 10:17:13;;;;;;;6.25;1.58;;;25.90;91.20;;;;;;5020428;28;20049;-76
2022/05/27 10:19:46;;;;;;;6.13;1.73;;;25.70;91.50;;;;;;5015269;28;20042;-77
2022/05/27 10:22:30;;;;;;;4.38;1.45;;;26.10;91.00;;;;;;5018097;28;20065;-77
2022/05/27 10:25:06;;;;;;;5.43;1.30;;;26.40;90.80;;;;;;5017354;28;20137;-77
2022/05/27 10:27:51;;;;;;;4.53;1.52;;;26.30;90.90;;;;;;5020502;28;20171;-76
2022/05/27 10:30:28;;;;;;;2.75;1.48;;;26.00;91.30;;;;;;5017605;28;20405;-76
2022/05/27 10:33:12;;;;;;;6.05;1.30;;;26.20;91.20;;;;;;5022225;28;20038;-76
2022/05/27 10:35:38;;;;;;;2.10;1.10;;;26.50;90.80;;;;;;5049214;28;20046;-76
2022/05/27 10:38:37;;;;;;;6.25;1.58;;;26.40;90.60;;;;;;5017857;28;20723;-76
2022/05/27 10:41:30;;;;;;;6.57;1.52;;;26.40;90.60;;;;;;5017441;28;20040;-77
2022/05/27 10:44:00;;;;;;;3.55;1.65;;;27.00;90.50;;;;;;5047422;28;21415;-75
2022/05/27 10:46:31;;;;;;;7.07;1.50;;;27.20;90.10;;;;;;5028175;28;20422;-76
2022/05/27 10:49:12;;;;;;;6.70;1.95;;;26.70;90.10;;;;;;5018969;28;20692;-76
2022/05/27 10:52:03;;;;;;;5.20;1.67;;;26.80;90.50;;;;;;5016507;28;20049;-77
2022/05/27 10:54:35;;;;;;;10.60;1.87;;;27.00;90.10;;;;;;5016948;28;20817;-77
2022/05/27 11:04:10;;;;;;;5.07;1.35;;;28.10;87.80;;;;;;5018772;28;20115;-77
2022/05/27 11:06:51;;;;;;;4.30;1.42;;;28.70;86.30;;;;;;5032996;28;20041;-76
2022/05/27 11:09:40;;;;;;;4.60;1.40;;;29.30;85.50;;;;;;5044091;28;20080;-77
2022/05/27 11:12:16;;;;;;;5.55;1.40;;;28.50;87.00;;;;;;5021918;28;20040;-76
2022/05/27 11:15:12;;;;;;;4.30;1.00;;;28.10;85.20;;;;;;5025766;28;20049;-76
2022/05/27 11:17:54;;;;;;;3.25;1.33;;;27.70;84.10;;;;;;5054274;28;20061;-77
2022/05/27 11:20:42;;;;;;;;;;;28.00;84.90;;;;;;5024951;28;20068;-75
2022/05/27 11:23:17;;;;;;;7.97;1.60;;;28.30;83.20;;;;;;5022788;28;19914;-76
2022/05/27 11:25:45;;;;;;;6.60;1.42;;;28.60;83.10;;;;;;5038262;28;20041;-76
2022/05/27 11:28:21;;;;;;;9.35;1.40;;;28.70;85.10;;;;;;5041074;28;20044;-76
2022/05/27 11:30:53;;;;;;;7.47;1.45;;;28.70;84.80;;;;;;5026647;28;20088;-76
2022/05/27 11:33:57;;;;;;;5.35;1.60;;;28.70;83.40;;;;;;5039106;28;20112;-76
2022/05/27 11:36:52;;;;;;;6.22;1.48;;;28.90;84.30;;;;;;5032229;28;20105;-77
2022/05/27 11:40:02;;;;;;;8.68;2.75;;;29.00;84.50;;;;;;5034529;28;20033;-77
2022/05/27 11:42:56;;;;;;;9.82;2.85;;;28.90;89.60;;;;;;5029638;28;20440;-76
2022/05/27 11:45:28;;;;;;;7.75;2.92;;;29.00;88.90;;;;;;5059593;28;20095;-77
2022/05/27 11:47:59;;;;;;;;;;;29.20;90.00;;;;;;5052289;28;20037;-77
2022/05/27 11:50:46;;;;;;;7.85;3.03;;;29.30;89.40;;;;;;5054297;28;19917;-77
2022/05/27 11:53:40;;;;;;;6.57;2.10;;;28.90;90.00;;;;;;5032230;28;20103;-77
2022/05/27 11:56:41;;;;;;;8.23;2.65;;;29.30;89.40;;;;;;5017591;28;20941;-77
2022/05/27 11:59:20;;;;;;;11.07;2.10;;;29.40;88.00;;;;;;4992819;28;20037;-76
2022/05/27 12:02:09;;;;;;;13.20;2.75;;;28.90;88.50;;;;;;5037398;28;20051;-77
2022/05/27 12:04:43;;;;;;;13.75;2.95;;;29.40;88.00;;;;;;5019194;28;20137;-77
2022/05/27 12:07:33;;;;;;;10.75;2.45;;;29.80;88.70;;;;;;5017994;28;20065;-77
2022/05/27 12:10:36;;;;;;;8.85;2.60;;;30.50;88.20;;;;;;5022700;28;20067;-78
2022/05/27 12:13:12;;;;;;;6.85;2.70;;;29.80;88.70;;;;;;5001400;28;20030;-76
2022/05/27 12:15:53;;;;;;;11.52;3.25;;;29.40;89.40;;;;;;5030034;28;20152;-76
2022/05/27 12:18:27;;;;;;;4.80;2.47;;;29.10;89.70;;;;;;5015165;28;20053;-75
2022/05/27 12:20:56;;;;;;;9.18;2.75;;;29.00;90.30;;;;;;4999909;28;20042;-77
2022/05/27 12:23:26;;;;;;;14.02;3.10;;;29.30;90.20;;;;;;4997344;28;20053;-76
2022/05/27 12:25:57;;;;;;;12.45;2.92;;;29.20;90.10;;;;;;5014966;28;20062;-76
2022/05/27 12:28:34;;;;;;;8.40;2.55;;;29.10;90.00;;;;;;4995846;28;20073;-76
2022/05/27 12:31:02;;;;;;;11.85;2.70;;;29.70;89.90;;;;;;5030170;28;20045;-77
2022/05/27 12:33:30;;;;;;;10.50;2.80;;;30.10;89.50;;;;;;4997838;28;20042;-75
2022/05/27 12:36:33;;;;;;;8.40;2.95;;;29.60;90.10;;;;;;5033689;28;20045;-75
2022/05/27 12:38:59;;;;;;;12.20;2.90;;;28.60;90.50;;;;;;4990657;28;20449;-76
2022/05/27 12:41:37;;;;;;;8.02;2.72;;;28.80;90.80;;;;;;5007845;28;20030;-79
2022/05/27 12:44:24;;;;;;;10.18;2.80;;;27.90;91.30;;;;;;5006207;28;20034;-77
2022/05/27 12:47:20;;;;;;;6.38;2.63;;;29.00;90.90;;;;;;5035523;28;20109;-77
2022/05/27 12:49:49;;;;;;;11.25;2.63;;;28.90;90.70;;;;;;5003583;28;20068;-77
2022/05/27 12:52:31;;;;;;;8.45;2.40;;;28.40;91.00;;;;;;5000744;28;20069;-76
2022/05/27 12:54:59;;;;;;;11.63;2.63;;;28.70;91.00;;;;;;5002159;28;20038;-77
2022/05/27 13:03:33;;;;;;;9.57;2.75;;;29.00;91.40;;;;;;5003301;28;20908;-76
2022/05/27 13:06:20;;;;;;;9.85;2.92;;;29.10;91.10;;;;;;5007150;28;20038;-76
2022/05/27 13:08:50;;;;;;;7.93;2.50;;;29.10;90.80;;;;;;5037593;28;20569;-77
2022/05/27 13:11:37;;;;;;;8.48;2.53;;;29.90;90.80;;;;;;5016691;28;20045;-78
2022/05/27 13:14:04;;;;;;;5.38;2.58;;;30.80;90.20;;;;;;4995925;28;20041;-74
2022/05/27 13:16:50;;;;;;;11.77;2.72;;;29.70;90.60;;;;;;4997134;28;20442;-71
2022/05/27 13:19:22;;;;;;;9.27;3.42;;;30.00;90.60;;;;;;5003826;28;20046;-72
2022/05/27 13:21:54;;;;;;;8.52;2.50;;;28.70;90.80;;;;;;5016408;28;20067;-71
2022/05/27 13:24:21;;;;;;;10.82;2.90;;;29.80;90.90;;;;;;5030200;28;20069;-71
2022/05/27 13:26:53;;;;;;;12.80;2.78;;;30.10;90.80;;;;;;5012744;28;20042;-74
2022/05/27 13:29:29;;;;;;;13.85;4.70;;;29.90;91.00;;;;;;5012596;28;20489;-72
2022/05/27 13:32:04;;;;;;;9.68;2.90;;;29.20;91.30;;;;;;5021073;28;21732;-73
2022/05/27 13:34:53;;;;;;;9.23;2.70;;;29.50;91.30;;;;;;5009180;28;20050;-72
2022/05/27 13:37:27;;;;;;;9.32;2.85;;;28.70;91.80;;;;;;5024284;28;20125;-72
2022/05/27 13:39:56;;;;;;;9.85;2.42;;;29.00;91.90;;;;;;5021802;28;20572;-72
2022/05/27 13:42:33;;;;;;;16.80;3.00;;;28.90;92.10;;;;;;5010774;28;20080;-71
2022/05/27 13:45:08;;;;;;;10.75;2.70;;;30.10;91.80;;;;;;5040366;28;20049;-72
2022/05/27 13:47:38;;;;;;;8.05;2.53;;;29.80;91.50;;;;;;5010556;28;20176;-73
2022/05/27 13:50:04;;;;;;;12.18;2.97;;;29.50;91.90;;;;;;5043083;28;20053;-72
2022/05/27 13:52:37;;;;;;;11.98;2.72;;;29.70;91.80;;;;;;5056659;28;20033;-71
2022/05/27 13:55:10;;;;;;;9.88;2.40;;;29.50;91.90;;;;;;5014081;28;20049;-72